Time;durP1;ratioP1;P1;durP2;ratioP2;P2;SDS_P1;SDS_P2;PMS_P1;PMS_P2;Temp;Humidity;BMP_temperature;BMP_pressure;BME280_temperature;BME280_humidity;BME280_pressure;Samples;Min_cycle;Max_cycle;Signal;HPM_P1;HPM_P2
2023/03/18 00:02:17;;;;;;;27.10;18.00;;;6.30;97.50;;;;;;5006399;28;20643;-89
2023/03/18 00:04:44;;;;;;;15.82;10.07;;;6.30;98.40;;;;;;5028441;28;20210;-89
2023/03/18 00:07:11;;;;;;;11.32;8.30;;;6.50;97.20;;;;;;5027489;28;20682;-89
2023/03/18 00:09:39;;;;;;;10.00;6.45;;;6.80;96.60;;;;;;5030249;28;20686;-87
2023/03/18 00:14:48;;;;;;;10.25;5.50;;;6.60;96.40;;;;;;5025856;28;20293;-89
2023/03/18 00:17:15;;;;;;;10.20;6.15;;;6.50;96.60;;;;;;5032371;28;20198;-89
2023/03/18 00:19:42;;;;;;;7.55;5.70;;;6.40;96.90;;;;;;5009162;28;20206;-87
2023/03/18 00:22:10;;;;;;;8.40;5.63;;;6.50;97.30;;;;;;5023582;28;20294;-87
2023/03/18 00:24:37;;;;;;;12.55;7.22;;;6.40;96.90;;;;;;5012381;28;20882;-88
2023/03/18 00:27:04;;;;;;;8.55;5.75;;;6.40;97.90;;;;;;5023311;28;20203;-89
2023/03/18 00:29:32;;;;;;;7.90;6.00;;;6.70;96.50;;;;;;5024343;28;20231;-89
2023/03/18 00:31:59;;;;;;;15.38;7.95;;;6.70;96.40;;;;;;5028064;28;20576;-89
2023/03/18 00:34:27;;;;;;;19.08;12.43;;;6.70;96.40;;;;;;4988289;28;20214;-89
2023/03/18 00:36:55;;;;;;;22.55;15.75;;;6.90;96.40;;;;;;5025233;28;20734;-90
2023/03/18 00:39:25;;;;;;;15.07;10.65;;;7.00;95.70;;;;;;5003623;28;20627;-88
2023/03/18 00:41:52;;;;;;;9.85;6.50;;;7.10;95.50;;;;;;5008389;28;20214;-88
2023/03/18 00:44:19;;;;;;;14.50;8.75;;;7.10;94.60;;;;;;5029972;28;20198;-88
2023/03/18 00:46:48;;;;;;;11.77;6.50;;;7.00;95.50;;;;;;5029128;28;20214;-87
2023/03/18 00:49:16;;;;;;;8.30;5.75;;;6.80;95.40;;;;;;5022561;28;20211;-88
2023/03/18 00:51:43;;;;;;;9.43;6.10;;;6.60;95.40;;;;;;5030871;28;20218;-88
2023/03/18 00:54:12;;;;;;;11.48;7.20;;;6.40;95.90;;;;;;5029584;28;20209;-89
2023/03/18 00:56:40;;;;;;;9.67;5.40;;;6.40;97.10;;;;;;5018763;28;20246;-87
2023/03/18 00:59:08;;;;;;;8.20;6.00;;;6.50;96.00;;;;;;5024968;28;20222;-87
2023/03/18 01:01:36;;;;;;;9.23;5.82;;;6.30;96.10;;;;;;5024036;28;20302;-89
2023/03/18 01:07:09;;;;;;;7.20;5.57;;;6.10;97.20;;;;;;5025728;28;20658;-89
2023/03/18 01:09:38;;;;;;;8.87;5.60;;;6.10;97.40;;;;;;5006311;28;20844;-87
2023/03/18 01:12:06;;;;;;;8.90;6.22;;;6.10;96.80;;;;;;5006254;28;20207;-86
2023/03/18 01:14:33;;;;;;;9.20;6.17;;;6.20;97.10;;;;;;5010271;28;20199;-89
2023/03/18 01:17:01;;;;;;;8.25;5.47;;;6.50;96.90;;;;;;5013423;28;20612;-86
2023/03/18 01:19:29;;;;;;;8.50;5.47;;;6.60;95.40;;;;;;5025190;28;20215;-86
2023/03/18 01:21:56;;;;;;;6.68;5.68;;;6.70;95.50;;;;;;5009531;28;20600;-89
2023/03/18 01:24:23;;;;;;;8.30;5.30;;;6.70;95.80;;;;;;5027764;28;20202;-86
2023/03/18 01:26:50;;;;;;;6.50;5.07;;;6.70;94.90;;;;;;5021308;28;20305;-89
2023/03/18 01:29:17;;;;;;;47.17;30.48;;;6.70;95.40;;;;;;5026098;28;20223;-89
2023/03/18 01:31:45;;;;;;;7.32;4.90;;;6.80;95.40;;;;;;5028483;28;20234;-86
2023/03/18 01:34:12;;;;;;;9.35;5.18;;;6.60;94.10;;;;;;5034997;28;20198;-92
2023/03/18 01:36:41;;;;;;;16.30;11.30;;;6.30;95.40;;;;;;5018143;28;20226;-87
2023/03/18 01:39:09;;;;;;;12.83;9.57;;;6.10;97.20;;;;;;5028759;28;20214;-90
2023/03/18 01:41:36;;;;;;;10.05;6.03;;;6.40;96.60;;;;;;4997474;28;20577;-88
2023/03/18 01:44:04;;;;;;;10.13;7.45;;;6.60;94.80;;;;;;5026216;28;20290;-88
2023/03/18 01:49:20;;;;;;;7.00;5.80;;;6.30;95.90;;;;;;5024053;28;20302;-88
2023/03/18 01:51:55;;;;;;;10.27;6.78;;;6.40;95.40;;;;;;5022371;28;20222;-88
2023/03/18 01:54:24;;;;;;;9.57;5.13;;;6.40;95.60;;;;;;5030162;28;20299;-88
2023/03/18 01:56:52;;;;;;;10.27;6.20;;;6.30;95.30;;;;;;5023523;28;20214;-89
2023/03/18 01:59:22;;;;;;;7.10;5.03;;;6.20;95.80;;;;;;5022297;28;20690;-86
2023/03/18 02:01:53;;;;;;;5.73;4.57;;;6.30;95.40;;;;;;5030061;28;20194;-88
2023/03/18 02:04:23;;;;;;;9.30;5.95;;;6.10;95.30;;;;;;5024817;28;20210;-88
2023/03/18 02:06:51;;;;;;;7.23;5.60;;;6.00;96.50;;;;;;5024324;28;20319;-86
2023/03/18 02:09:18;;;;;;;8.60;5.55;;;5.90;96.00;;;;;;5027672;28;20276;-86
2023/03/18 02:11:48;;;;;;;10.93;5.87;;;5.80;96.60;;;;;;5022320;28;20257;-88
2023/03/18 02:14:18;;;;;;;11.77;5.83;;;5.70;96.80;;;;;;5023263;28;20301;-88
2023/03/18 02:16:48;;;;;;;8.07;5.27;;;5.70;97.60;;;;;;5030930;28;20229;-88
2023/03/18 02:19:26;;;;;;;7.33;4.90;;;5.80;97.20;;;;;;5031884;28;21721;-87
2023/03/18 02:22:03;;;;;;;9.30;5.77;;;5.70;97.00;;;;;;5028496;28;20229;-88
2023/03/18 02:24:39;;;;;;;12.47;7.00;;;6.00;97.70;;;;;;5009576;28;20242;-88
2023/03/18 02:27:16;;;;;;;8.73;5.60;;;6.00;96.30;;;;;;5026343;28;20663;-87
2023/03/18 02:29:44;;;;;;;8.45;4.90;;;6.00;96.70;;;;;;5026030;28;20226;-87
2023/03/18 02:32:12;;;;;;;7.97;4.80;;;6.20;96.40;;;;;;5026727;28;20194;-88
2023/03/18 02:34:41;;;;;;;7.37;5.17;;;6.00;95.70;;;;;;5026131;28;20690;-87
2023/03/18 02:37:08;;;;;;;8.77;5.70;;;5.90;96.50;;;;;;5027299;28;20194;-87
2023/03/18 02:39:35;;;;;;;7.53;5.43;;;5.80;96.80;;;;;;5004995;28;20206;-87
2023/03/18 02:42:03;;;;;;;7.43;5.47;;;6.00;96.90;;;;;;5029248;28;20198;-88
2023/03/18 02:44:32;;;;;;;6.03;5.05;;;6.10;96.40;;;;;;4989852;28;20679;-88
2023/03/18 02:47:02;;;;;;;7.57;5.33;;;6.10;96.60;;;;;;5020823;28;20206;-88
2023/03/18 02:49:31;;;;;;;7.37;5.13;;;6.20;96.10;;;;;;5028817;28;21024;-87
2023/03/18 02:51:58;;;;;;;9.63;5.30;;;6.10;95.90;;;;;;5022183;28;20237;-87
2023/03/18 02:54:29;;;;;;;10.30;5.63;;;6.00;96.40;;;;;;5009332;28;20242;-87
2023/03/18 02:56:57;;;;;;;8.07;5.13;;;6.00;96.90;;;;;;5003672;28;20243;-87
2023/03/18 02:59:24;;;;;;;5.63;4.60;;;6.00;96.80;;;;;;5025029;28;20204;-87
2023/03/18 03:01:53;;;;;;;5.90;4.87;;;6.10;96.80;;;;;;5010886;28;20206;-87
2023/03/18 03:04:23;;;;;;;6.43;4.78;;;6.00;96.40;;;;;;5028196;28;20198;-88
2023/03/18 03:06:51;;;;;;;6.63;5.05;;;6.00;96.40;;;;;;5022373;28;20651;-87
2023/03/18 03:09:19;;;;;;;7.30;4.63;;;5.90;96.60;;;;;;5029516;28;20194;-88
2023/03/18 03:11:47;;;;;;;8.30;4.97;;;5.90;97.20;;;;;;5008303;28;20205;-87
2023/03/18 03:14:15;;;;;;;8.13;4.20;;;6.20;97.10;;;;;;5035722;28;20203;-88
2023/03/18 03:16:42;;;;;;;9.05;5.07;;;6.20;96.40;;;;;;5028023;28;20203;-87
2023/03/18 03:19:11;;;;;;;7.85;4.93;;;6.20;96.20;;;;;;5029082;28;20210;-87
2023/03/18 03:21:38;;;;;;;6.43;4.55;;;6.10;96.70;;;;;;5025601;28;20206;-87
2023/03/18 03:24:07;;;;;;;7.10;4.30;;;6.00;96.90;;;;;;5026229;28;20297;-89
2023/03/18 03:26:34;;;;;;;5.93;4.38;;;6.00;96.80;;;;;;5029461;28;20210;-87
2023/03/18 03:29:03;;;;;;;7.13;4.32;;;6.00;97.00;;;;;;5027063;28;20234;-88
2023/03/18 03:31:30;;;;;;;5.63;4.25;;;6.10;97.20;;;;;;5008382;28;20226;-88
2023/03/18 03:33:57;;;;;;;8.20;4.03;;;6.20;96.90;;;;;;5010449;28;20203;-87
2023/03/18 03:36:26;;;;;;;7.35;4.63;;;6.20;96.50;;;;;;5030090;28;20296;-87
2023/03/18 03:38:53;;;;;;;5.50;4.20;;;6.10;96.50;;;;;;4995634;28;20711;-89
2023/03/18 03:41:20;;;;;;;6.72;4.00;;;6.20;96.70;;;;;;5031036;28;20203;-88
2023/03/18 03:43:47;;;;;;;7.68;4.47;;;6.30;96.30;;;;;;5024759;28;20207;-88
2023/03/18 03:46:14;;;;;;;6.63;4.50;;;6.20;96.40;;;;;;5007987;28;20206;-88
2023/03/18 03:48:41;;;;;;;4.38;3.88;;;6.40;96.70;;;;;;5012649;28;20689;-88
2023/03/18 03:51:08;;;;;;;6.40;4.07;;;6.50;95.40;;;;;;5028235;28;20714;-87
2023/03/18 03:53:37;;;;;;;6.68;4.20;;;6.40;95.40;;;;;;4992863;28;20305;-90
2023/03/18 03:56:06;;;;;;;6.82;4.10;;;6.30;95.60;;;;;;5011839;28;20206;-89
2023/03/18 03:58:33;;;;;;;5.20;3.60;;;6.30;96.50;;;;;;5007027;28;20297;-89
2023/03/18 04:01:00;;;;;;;4.72;3.70;;;6.40;95.40;;;;;;5003532;28;20599;-89
2023/03/18 04:03:27;;;;;;;4.82;3.67;;;6.30;95.40;;;;;;5022216;28;20210;-89
2023/03/18 04:05:55;;;;;;;5.93;4.00;;;6.40;95.90;;;;;;5021206;28;20214;-91
2023/03/18 04:08:22;;;;;;;4.55;3.55;;;6.60;95.40;;;;;;5010223;28;20211;-90
2023/03/18 04:10:50;;;;;;;6.78;3.88;;;6.50;95.10;;;;;;5025441;28;20226;-89
2023/03/18 04:13:17;;;;;;;4.95;3.58;;;6.50;95.40;;;;;;5010454;28;20194;-88
2023/03/18 04:15:46;;;;;;;4.45;3.75;;;6.50;95.60;;;;;;5034832;28;20195;-89
2023/03/18 04:18:13;;;;;;;6.35;3.90;;;6.50;95.20;;;;;;4997208;28;20195;-88
2023/03/18 04:20:40;;;;;;;6.68;3.60;;;6.50;95.40;;;;;;5025420;28;20204;-89
2023/03/18 04:23:08;;;;;;;4.80;3.80;;;6.40;95.40;;;;;;5029879;28;20226;-89
2023/03/18 04:25:36;;;;;;;4.82;3.85;;;6.30;95.40;;;;;;5009914;28;20217;-89
2023/03/18 04:30:45;;;;;;;6.15;4.10;;;6.20;95.80;;;;;;5022030;28;20697;-88
2023/03/18 04:33:13;;;;;;;4.90;3.50;;;6.20;95.90;;;;;;4994931;28;20198;-89
2023/03/18 04:35:41;;;;;;;4.43;3.72;;;6.20;95.90;;;;;;5031602;28;20206;-90
2023/03/18 04:38:08;;;;;;;6.03;4.30;;;6.20;95.90;;;;;;5033551;28;20589;-89
2023/03/18 04:40:35;;;;;;;9.35;3.47;;;6.20;95.80;;;;;;5014778;28;20244;-87
2023/03/18 04:45:44;;;;;;;7.53;3.78;;;6.70;94.80;;;;;;5026605;28;20203;-87
2023/03/18 04:48:11;;;;;;;5.50;4.00;;;6.60;94.50;;;;;;5030689;28;20673;-87
2023/03/18 04:50:39;;;;;;;5.03;3.70;;;6.40;94.90;;;;;;5031446;28;20234;-88
2023/03/18 04:53:06;;;;;;;5.40;3.67;;;6.30;95.40;;;;;;4995532;28;20203;-87
2023/03/18 04:55:34;;;;;;;5.38;3.53;;;6.20;95.30;;;;;;5031867;28;20203;-88
2023/03/18 04:58:02;;;;;;;7.00;3.80;;;6.20;95.30;;;;;;5028976;28;20203;-87
2023/03/18 05:00:31;;;;;;;5.47;3.53;;;6.10;95.50;;;;;;5010142;28;20570;-87
2023/03/18 05:03:00;;;;;;;5.93;3.60;;;6.20;95.50;;;;;;5029120;28;20509;-87
2023/03/18 05:05:27;;;;;;;4.70;3.42;;;6.50;95.40;;;;;;5032286;28;20264;-87
2023/03/18 05:07:54;;;;;;;4.20;3.28;;;6.60;94.20;;;;;;5009459;28;20713;-90
2023/03/18 05:10:22;;;;;;;4.82;3.33;;;6.60;93.70;;;;;;5022365;28;20219;-87
2023/03/18 05:12:49;;;;;;;6.78;3.40;;;6.50;94.40;;;;;;5002700;28;20279;-88
2023/03/18 05:15:16;;;;;;;7.43;3.28;;;6.40;94.60;;;;;;5022777;28;20206;-90
2023/03/18 05:17:44;;;;;;;5.50;3.30;;;6.30;95.10;;;;;;5025194;28;20207;-87
2023/03/18 05:20:13;;;;;;;5.10;3.50;;;6.30;95.40;;;;;;5009485;28;20210;-87
2023/03/18 05:22:40;;;;;;;5.43;3.50;;;6.40;95.40;;;;;;5027002;28;20223;-87
2023/03/18 05:25:11;;;;;;;7.28;3.50;;;6.50;95.40;;;;;;5021165;28;20203;-86
2023/03/18 05:27:39;;;;;;;6.78;3.35;;;6.70;93.80;;;;;;5009234;28;20202;-87
2023/03/18 05:30:08;;;;;;;4.07;3.20;;;6.80;93.40;;;;;;5018438;28;20219;-86
2023/03/18 05:32:35;;;;;;;6.85;3.10;;;6.70;93.10;;;;;;5025385;28;20249;-87
2023/03/18 05:35:04;;;;;;;6.93;3.50;;;6.60;93.70;;;;;;5028519;28;20606;-89
2023/03/18 05:37:38;;;;;;;4.70;3.22;;;6.60;94.60;;;;;;5029659;28;20226;-87
2023/03/18 05:40:08;;;;;;;4.75;3.08;;;6.70;93.70;;;;;;5029022;28;20199;-87
2023/03/18 05:42:36;;;;;;;3.95;3.10;;;6.90;93.90;;;;;;5035731;28;20210;-88
2023/03/18 05:45:04;;;;;;;4.55;3.40;;;6.90;93.10;;;;;;5009071;28;20206;-87
2023/03/18 05:47:31;;;;;;;3.90;3.00;;;7.00;92.80;;;;;;5012964;28;20685;-87
2023/03/18 05:49:58;;;;;;;5.55;3.20;;;6.90;93.00;;;;;;5025034;28;20559;-87
2023/03/18 05:52:27;;;;;;;3.42;3.10;;;7.00;93.10;;;;;;5009219;28;20609;-87
2023/03/18 05:54:54;;;;;;;5.50;3.47;;;7.10;92.60;;;;;;5029331;28;20218;-87
2023/03/18 05:57:21;;;;;;;4.57;3.25;;;7.10;92.20;;;;;;5027099;28;20206;-88
2023/03/18 05:59:48;;;;;;;3.92;3.05;;;7.10;92.30;;;;;;5029471;28;20206;-87
2023/03/18 06:02:15;;;;;;;6.40;3.40;;;7.20;92.80;;;;;;5029362;28;20207;-87
2023/03/18 06:04:42;;;;;;;4.65;3.28;;;7.20;92.80;;;;;;5020898;28;20700;-87
2023/03/18 06:07:10;;;;;;;5.05;3.28;;;7.40;92.10;;;;;;5000981;28;20214;-85
2023/03/18 06:12:26;;;;;;;4.60;2.90;;;7.10;91.80;;;;;;5022030;28;20239;-91
2023/03/18 06:14:53;;;;;;;6.22;3.53;;;7.00;91.90;;;;;;5029120;28;20257;-89
2023/03/18 06:17:20;;;;;;;5.30;3.47;;;7.00;92.90;;;;;;5029199;28;20210;-91
2023/03/18 06:22:30;;;;;;;5.07;3.33;;;7.00;92.60;;;;;;5030263;28;20230;-88
2023/03/18 06:24:59;;;;;;;5.95;3.70;;;7.20;92.40;;;;;;5031886;28;20285;-89
2023/03/18 06:27:25;;;;;;;7.30;3.42;;;7.40;92.30;;;;;;5033036;28;20662;-89
2023/03/18 06:29:53;;;;;;;6.15;2.90;;;7.50;91.70;;;;;;5037542;28;20206;-93
2023/03/18 06:32:20;;;;;;;6.65;3.00;;;7.60;91.70;;;;;;4998326;28;20382;-93
2023/03/18 06:38:19;;;;;;;4.15;2.92;;;7.40;91.90;;;;;;5009458;28;20580;-90
2023/03/18 06:41:17;;;;;;;6.13;2.75;;;7.20;92.80;;;;;;4977595;28;20714;-89
2023/03/18 06:43:49;;;;;;;3.63;2.72;;;7.20;92.60;;;;;;5008667;28;20269;-87
2023/03/18 06:46:16;;;;;;;4.85;2.72;;;7.20;93.00;;;;;;5025755;28;20234;-87
2023/03/18 06:48:43;;;;;;;3.83;2.88;;;7.50;92.60;;;;;;5023957;28;20217;-86
2023/03/18 06:51:11;;;;;;;6.10;3.00;;;7.70;92.00;;;;;;4994337;28;20264;-86
2023/03/18 06:53:38;;;;;;;5.15;2.88;;;7.90;90.40;;;;;;5030150;28;20198;-86
2023/03/18 06:56:06;;;;;;;3.97;2.83;;;7.80;91.80;;;;;;5008558;28;20203;-86
2023/03/18 06:58:33;;;;;;;4.43;2.80;;;7.70;91.90;;;;;;5045047;28;20249;-84
2023/03/18 07:01:02;;;;;;;5.60;3.40;;;7.70;92.00;;;;;;5032489;28;20203;-86
2023/03/18 07:03:29;;;;;;;3.67;2.80;;;7.80;92.40;;;;;;5031057;28;20222;-85
2023/03/18 07:05:56;;;;;;;5.88;3.00;;;7.90;91.70;;;;;;5032807;28;20567;-87
2023/03/18 07:08:24;;;;;;;3.65;2.92;;;7.90;91.80;;;;;;5037189;28;20198;-86
2023/03/18 07:10:52;;;;;;;4.65;2.95;;;8.00;92.10;;;;;;5019186;28;20233;-88
2023/03/18 07:13:19;;;;;;;4.80;2.70;;;8.00;92.20;;;;;;5033820;28;20643;-88
2023/03/18 07:15:47;;;;;;;4.82;2.63;;;8.10;93.00;;;;;;5043213;28;20213;-89
2023/03/18 07:18:15;;;;;;;3.50;2.53;;;8.10;92.50;;;;;;5021381;28;20540;-89
2023/03/18 07:20:42;;;;;;;3.65;2.70;;;8.30;92.10;;;;;;5031324;28;20206;-88
2023/03/18 07:23:10;;;;;;;2.30;2.10;;;8.30;92.00;;;;;;5033979;28;20233;-93
2023/03/18 07:25:37;;;;;;;5.65;2.75;;;8.70;91.40;;;;;;5035806;28;20253;-91
2023/03/18 07:28:04;;;;;;;3.75;2.50;;;8.80;90.70;;;;;;5035797;28;20206;-88
2023/03/18 07:30:32;;;;;;;5.60;2.80;;;8.90;90.90;;;;;;5037650;28;20198;-91
2023/03/18 07:33:02;;;;;;;6.03;2.83;;;9.00;91.00;;;;;;5004184;28;20199;-90
2023/03/18 07:45:34;;;;;;;4.28;3.08;;;10.00;76.50;;;;;;5034340;28;20214;-89
2023/03/18 07:48:01;;;;;;;9.02;2.90;;;10.50;79.10;;;;;;5007868;28;20195;-90
2023/03/18 07:50:28;;;;;;;4.60;3.08;;;10.70;67.60;;;;;;5017866;28;20218;-91
2023/03/18 07:52:55;;;;;;;4.43;3.30;;;10.90;75.20;;;;;;5018630;28;20202;-90
2023/03/18 07:55:23;;;;;;;10.93;3.33;;;10.90;74.00;;;;;;5021273;28;20230;-90
2023/03/18 07:57:52;;;;;;;11.45;3.40;;;10.90;74.00;;;;;;5022635;28;20265;-91
2023/03/18 08:00:21;;;;;;;14.88;3.65;;;11.10;74.30;;;;;;5039958;28;20234;-90
2023/03/18 08:02:47;;;;;;;12.82;3.60;;;11.20;57.60;;;;;;5035289;28;20198;-89
2023/03/18 08:07:57;;;;;;;14.75;3.47;;;11.50;60.50;;;;;;5010750;28;20666;-90
2023/03/18 08:10:24;;;;;;;8.65;3.00;;;11.80;54.10;;;;;;5026935;28;20289;-89
2023/03/18 08:12:53;;;;;;;11.15;3.08;;;12.00;48.60;;;;;;5033910;28;20242;-89
2023/03/18 08:15:20;;;;;;;8.68;3.05;;;12.20;48.80;;;;;;5019921;28;20560;-89
2023/03/18 08:17:47;;;;;;;11.50;3.05;;;12.30;48.90;;;;;;5024044;28;20210;-92
2023/03/18 08:22:55;;;;;;;9.70;2.65;;;12.60;41.40;;;;;;5024873;28;20622;-90
2023/03/18 08:25:23;;;;;;;7.05;2.60;;;12.80;38.50;;;;;;5027202;28;20650;-91
2023/03/18 08:30:32;;;;;;;7.38;2.30;;;13.00;41.00;;;;;;5027290;28;20218;-91
2023/03/18 08:33:00;;;;;;;8.57;2.58;;;13.20;38.00;;;;;;5034302;28;20725;-91
2023/03/18 08:35:26;;;;;;;4.13;2.28;;;13.20;39.00;;;;;;5038266;28;20233;-92
2023/03/18 08:37:54;;;;;;;5.22;2.47;;;13.20;34.80;;;;;;5034630;28;20199;-91
2023/03/18 08:40:21;;;;;;;6.18;2.85;;;13.30;34.70;;;;;;5034394;28;20206;-91
2023/03/18 08:42:48;;;;;;;6.18;2.67;;;13.30;36.20;;;;;;5020889;28;20211;-91
2023/03/18 09:07:41;;;;;;;5.65;2.63;;;14.80;26.70;;;;;;5069834;28;20213;-92
2023/03/18 09:10:09;;;;;;;7.72;2.50;;;15.00;23.60;;;;;;5061003;28;20202;-91
2023/03/18 09:12:36;;;;;;;6.35;2.53;;;15.20;22.60;;;;;;5068156;28;20241;-90
2023/03/18 09:15:04;;;;;;;5.40;2.38;;;15.30;24.90;;;;;;5088369;28;20200;-91
2023/03/18 09:17:31;;;;;;;3.17;2.10;;;15.50;20.50;;;;;;5088307;28;20186;-93
2023/03/18 09:19:59;;;;;;;3.88;2.40;;;15.40;21.90;;;;;;5082982;28;20209;-92
2023/03/18 09:22:29;;;;;;;5.55;2.22;;;15.60;22.10;;;;;;5100607;28;20224;-93
2023/03/18 09:30:43;;;;;;;5.30;2.00;;;16.10;20.20;;;;;;5032005;28;20210;-92
2023/03/18 09:35:52;;;;;;;4.85;2.40;;;16.20;19.70;;;;;;5042377;28;20205;-90
2023/03/18 09:41:11;;;;;;;7.10;2.50;;;16.30;17.90;;;;;;5608911;22;20220;-92
2023/03/18 09:44:09;;;;;;;3.28;2.00;;;16.40;18.00;;;;;;5094009;28;20240;-84
2023/03/18 09:47:03;;;;;;;2.50;2.13;;;16.50;19.60;;;;;;5077131;28;20205;-88
2023/03/18 10:08:04;;;;;;;6.32;2.60;;;18.50;17.30;;;;;;4999424;28;20196;-88
2023/03/18 10:10:37;;;;;;;3.90;2.70;;;18.40;16.80;;;;;;5070502;28;20228;-87
2023/03/18 10:13:13;;;;;;;5.57;2.50;;;18.40;16.40;;;;;;5095109;28;20204;-88
2023/03/18 10:15:44;;;;;;;6.65;3.00;;;19.10;13.30;;;;;;5061256;28;20571;-88
2023/03/18 10:18:19;;;;;;;5.20;2.83;;;19.20;12.70;;;;;;5080391;28;20201;-89
2023/03/18 10:26:42;;;;;;;3.63;2.38;;;20.10;11.00;;;;;;5068031;28;20269;-88
2023/03/18 10:29:37;;;;;;;4.53;2.80;;;20.10;11.10;;;;;;5072808;28;20200;-90
2023/03/18 10:35:07;;;;;;;7.90;2.83;;;19.20;10.40;;;;;;5074857;28;20695;-89
2023/03/18 10:37:52;;;;;;;4.70;2.70;;;19.20;11.30;;;;;;5068371;28;20672;-91
2023/03/18 10:40:20;;;;;;;4.90;2.58;;;19.40;12.20;;;;;;5052980;28;20205;-90
2023/03/18 10:45:34;;;;;;;5.95;2.83;;;20.00;11.00;;;;;;5080236;28;20208;-88
2023/03/18 10:48:27;;;;;;;3.67;2.70;;;19.80;10.80;;;;;;5080101;28;20223;-89
2023/03/18 10:53:55;;;;;;;5.88;3.13;;;19.80;10.80;;;;;;5080014;28;20205;-88
2023/03/18 10:56:43;;;;;;;5.70;3.05;;;19.80;10.80;;;;;;5069403;28;20197;-89
2023/03/18 11:11:33;;;;;;;8.10;3.10;;;19.40;10.60;;;;;;5077940;28;20228;-88
2023/03/18 11:14:02;;;;;;;5.65;3.00;;;19.70;10.80;;;;;;5076472;28;20207;-88
2023/03/18 11:19:32;;;;;;;8.52;3.00;;;19.50;10.60;;;;;;5068662;28;20272;-85
2023/03/18 11:22:10;;;;;;;7.85;3.38;;;19.00;13.30;;;;;;5075971;28;20712;-87
2023/03/18 11:24:41;;;;;;;5.60;3.15;;;19.20;10.50;;;;;;5053838;28;20285;-89
2023/03/18 11:27:44;;;;;;;5.88;3.10;;;19.00;12.40;;;;;;5069980;28;20326;-87
2023/03/18 11:30:17;;;;;;;5.90;2.95;;;19.00;11.60;;;;;;5060554;28;20193;-91
2023/03/18 11:41:15;;;;;;;5.25;2.80;;;18.60;13.10;;;;;;5045590;28;20212;-90
2023/03/18 11:43:58;;;;;;;4.43;2.63;;;18.20;12.40;;;;;;5077974;28;20200;-91
2023/03/18 11:49:15;;;;;;;4.03;2.83;;;18.30;12.40;;;;;;5075337;28;20202;-91
2023/03/18 12:01:09;;;;;;;4.75;2.97;;;18.40;11.30;;;;;;5051908;28;20209;-90
2023/03/18 12:04:03;;;;;;;6.03;3.20;;;18.20;12.00;;;;;;5076747;28;20283;-91
2023/03/18 12:06:31;;;;;;;4.55;2.78;;;18.20;11.70;;;;;;5024223;28;20206;-91
2023/03/18 12:12:39;;;;;;;5.20;2.80;;;18.10;12.10;;;;;;5070236;28;20308;-92
2023/03/18 12:15:18;;;;;;;6.07;3.25;;;17.90;12.40;;;;;;5072325;28;20217;-90
2023/03/18 12:23:59;;;;;;;4.50;2.92;;;17.70;12.90;;;;;;5035869;28;20578;-92
2023/03/18 12:26:55;;;;;;;4.80;2.83;;;17.60;13.70;;;;;;5067508;28;20636;-90
2023/03/18 12:35:46;;;;;;;4.78;3.00;;;17.70;13.60;;;;;;5078188;28;20208;-90
2023/03/18 12:41:33;;;;;;;4.55;2.95;;;17.70;13.50;;;;;;5073151;28;20205;-91
2023/03/18 12:47:00;;;;;;;6.57;3.25;;;17.80;13.60;;;;;;5060296;28;20283;-91
2023/03/18 12:52:40;;;;;;;4.97;3.08;;;17.60;13.20;;;;;;5071496;28;20253;-91
2023/03/18 12:58:00;;;;;;;9.43;3.72;;;17.60;14.10;;;;;;5069490;28;20202;-90
2023/03/18 13:00:51;;;;;;;5.35;3.05;;;17.50;14.40;;;;;;5044490;28;20288;-91
2023/03/18 13:06:39;;;;;;;7.25;3.40;;;17.50;14.60;;;;;;5065166;28;20225;-91
2023/03/18 13:09:47;;;;;;;6.22;3.83;;;17.40;14.50;;;;;;5029396;28;20249;-91
2023/03/18 13:12:18;;;;;;;4.93;3.13;;;17.50;14.40;;;;;;5066242;28;20227;-91
2023/03/18 13:14:57;;;;;;;8.40;3.47;;;17.70;14.30;;;;;;5057643;28;20208;-90
2023/03/18 13:17:32;;;;;;;8.25;3.70;;;17.80;14.40;;;;;;5048954;28;20205;-89
2023/03/18 13:20:31;;;;;;;9.05;3.88;;;17.80;14.60;;;;;;5074720;28;20259;-91
2023/03/18 13:23:49;;;;;;;7.45;3.40;;;17.80;14.40;;;;;;5072166;28;20257;-91
2023/03/18 13:32:42;;;;;;;4.60;3.55;;;17.60;14.80;;;;;;5080693;28;20253;-88
2023/03/18 13:35:37;;;;;;;5.05;3.17;;;17.70;14.80;;;;;;5083792;28;20189;-90
2023/03/18 13:50:36;;;;;;;5.95;3.22;;;17.70;14.90;;;;;;5056616;28;20229;-88
2023/03/18 14:12:39;;;;;;;12.45;3.55;;;17.80;14.80;;;;;;6181689;22;20210;-87
2023/03/18 14:15:37;;;;;;;6.63;3.25;;;17.80;14.90;;;;;;5065856;28;20201;-88
2023/03/18 14:18:24;;;;;;;5.50;3.10;;;17.90;14.60;;;;;;5065118;28;20297;-91
2023/03/18 14:20:54;;;;;;;6.82;3.08;;;17.80;15.20;;;;;;5049095;28;20276;-91
2023/03/18 14:23:45;;;;;;;6.88;2.85;;;17.90;14.90;;;;;;5064114;28;20217;-90
2023/03/18 14:26:23;;;;;;;6.65;2.72;;;17.80;14.70;;;;;;5050236;28;20204;-90
2023/03/18 14:31:56;;;;;;;3.90;2.88;;;17.80;15.00;;;;;;5080014;28;20550;-90
2023/03/18 14:34:26;;;;;;;6.97;2.88;;;17.80;15.20;;;;;;5056594;28;20288;-90
2023/03/18 14:40:15;;;;;;;3.58;2.88;;;17.50;15.10;;;;;;5073062;28;20259;-87
2023/03/18 14:42:57;;;;;;;5.47;3.00;;;17.50;15.40;;;;;;5059993;28;20217;-88
2023/03/18 14:45:28;;;;;;;6.18;3.20;;;17.50;15.30;;;;;;5069931;28;20228;-91
2023/03/18 14:50:45;;;;;;;6.55;3.30;;;17.40;15.50;;;;;;5063642;28;20262;-90
2023/03/18 14:53:35;;;;;;;5.57;3.15;;;17.50;15.10;;;;;;5070034;28;20229;-90
2023/03/18 14:56:04;;;;;;;5.65;2.90;;;17.50;15.10;;;;;;5071649;28;20201;-91
2023/03/18 14:58:34;;;;;;;6.60;3.00;;;17.40;15.00;;;;;;5059970;28;20291;-90
2023/03/18 15:01:12;;;;;;;6.20;2.70;;;17.30;15.30;;;;;;5071884;28;20230;-90
2023/03/18 15:03:40;;;;;;;7.85;2.90;;;17.20;15.40;;;;;;5071560;28;20193;-90
2023/03/18 15:06:08;;;;;;;5.10;3.17;;;17.20;15.50;;;;;;5071029;28;20197;-91
2023/03/18 15:08:37;;;;;;;5.10;3.30;;;17.10;15.80;;;;;;5070665;28;20208;-90
2023/03/18 15:13:47;;;;;;;5.00;2.88;;;17.00;15.80;;;;;;5060110;28;20236;-91
2023/03/18 15:19:00;;;;;;;4.50;2.90;;;17.20;15.30;;;;;;5062195;28;20205;-91
2023/03/18 15:21:31;;;;;;;4.07;2.78;;;17.20;15.30;;;;;;5062128;28;20205;-90
2023/03/18 15:26:43;;;;;;;4.88;2.92;;;17.10;15.30;;;;;;5045931;28;20569;-90
2023/03/18 15:29:32;;;;;;;4.63;3.10;;;16.90;15.80;;;;;;5047969;28;20209;-91
2023/03/18 15:35:06;;;;;;;6.00;3.47;;;16.90;16.20;;;;;;5067761;28;20205;-89
2023/03/18 15:37:39;;;;;;;7.35;3.47;;;16.90;16.40;;;;;;5067116;28;20220;-91
2023/03/18 15:43:19;;;;;;;6.55;3.67;;;17.00;16.60;;;;;;5069854;28;20197;-91
2023/03/18 15:45:52;;;;;;;6.13;3.65;;;17.10;16.50;;;;;;5067076;28;20202;-90
2023/03/18 15:51:23;;;;;;;5.57;3.38;;;17.20;16.90;;;;;;5064820;28;20208;-91
2023/03/18 15:53:53;;;;;;;4.97;3.38;;;17.10;17.20;;;;;;5074378;28;20209;-90
2023/03/18 15:56:27;;;;;;;5.50;3.53;;;16.90;17.70;;;;;;5035552;28;20666;-91
2023/03/18 15:59:02;;;;;;;5.22;3.72;;;16.70;18.00;;;;;;5070047;28;20189;-92
2023/03/18 16:01:51;;;;;;;6.97;4.20;;;16.60;18.10;;;;;;5040185;28;20217;-91
2023/03/18 16:07:27;;;;;;;10.50;3.85;;;16.40;18.60;;;;;;5071911;28;20298;-91
2023/03/18 16:12:38;;;;;;;6.32;3.92;;;16.30;18.90;;;;;;5064715;28;20313;-91
2023/03/18 16:18:13;;;;;;;6.93;3.67;;;16.20;19.30;;;;;;5028045;28;20590;-91
2023/03/18 16:23:46;;;;;;;7.10;3.60;;;16.10;19.40;;;;;;5042063;28;20204;-91
2023/03/18 16:28:56;;;;;;;6.97;3.70;;;15.90;20.00;;;;;;5051682;28;20202;-91
2023/03/18 16:31:22;;;;;;;8.05;3.88;;;15.70;20.10;;;;;;5068519;28;20202;-91
2023/03/18 16:33:52;;;;;;;6.63;4.13;;;15.70;20.00;;;;;;5073118;28;20217;-91
2023/03/18 16:39:34;;;;;;;7.85;3.80;;;15.60;20.30;;;;;;5061728;28;20217;-91
2023/03/18 16:42:03;;;;;;;7.80;3.75;;;15.50;20.40;;;;;;5039476;28;20208;-91
2023/03/18 16:47:27;;;;;;;8.32;3.95;;;15.50;20.60;;;;;;5007870;28;20817;-91
2023/03/18 16:49:55;;;;;;;4.82;3.83;;;15.40;20.80;;;;;;5060685;28;20209;-90
2023/03/18 16:55:05;;;;;;;5.78;3.70;;;15.40;21.20;;;;;;5069487;28;20202;-91
2023/03/18 16:57:36;;;;;;;8.02;4.53;;;15.50;21.10;;;;;;5047549;28;20201;-92
2023/03/18 17:00:27;;;;;;;7.78;3.83;;;15.50;21.20;;;;;;5056683;28;20720;-93
2023/03/18 17:11:34;;;;;;;7.70;4.30;;;15.30;22.10;;;;;;5067534;28;20208;-90
2023/03/18 17:14:01;;;;;;;10.20;4.60;;;15.20;22.60;;;;;;5057498;28;20225;-91
2023/03/18 17:16:30;;;;;;;7.50;4.18;;;15.10;22.80;;;;;;5067147;28;20216;-91
2023/03/18 17:19:17;;;;;;;9.32;4.28;;;14.90;23.40;;;;;;5041941;28;20197;-90
2023/03/18 17:21:44;;;;;;;8.55;4.10;;;14.80;23.70;;;;;;5057779;28;20225;-90
2023/03/18 17:36:21;;;;;;;8.18;5.03;;;14.00;27.00;;;;;;4972141;28;20720;-88
2023/03/18 17:41:32;;;;;;;8.77;5.05;;;13.70;26.70;;;;;;5059375;28;20607;-89
2023/03/18 17:44:01;;;;;;;9.60;5.88;;;13.60;26.70;;;;;;5060259;28;20217;-89
2023/03/18 17:46:41;;;;;;;7.53;4.63;;;13.50;26.70;;;;;;5050775;28;20200;-89
2023/03/18 17:49:27;;;;;;;10.75;5.32;;;13.40;27.30;;;;;;5049589;28;20654;-90
2023/03/18 17:52:37;;;;;;;8.70;4.80;;;13.20;28.30;;;;;;5039861;28;20727;-92
2023/03/18 18:23:43;;;;;;;9.38;5.35;;;12.60;32.90;;;;;;5059366;28;20241;-94
2023/03/18 18:29:36;;;;;;;11.43;5.22;;;12.40;35.10;;;;;;4998684;28;20210;-95